Time;durP1;ratioP1;P1;durP2;ratioP2;P2;SDS_P1;SDS_P2;PMS_P1;PMS_P2;Temp;Humidity;BMP_temperature;BMP_pressure;BME280_temperature;BME280_humidity;BME280_pressure;Samples;Min_cycle;Max_cycle;Signal;HPM_P1;HPM_P2
2021/10/20 00:01:51;;;;;;;9.63;5.88;;;10.50;28.50;;;;;;5051549;28;20041;-68
2021/10/20 00:04:19;;;;;;;10.98;6.30;;;10.50;28.60;;;;;;5055819;28;20048;-68
2021/10/20 00:06:47;;;;;;;8.70;6.18;;;10.50;28.50;;;;;;5050350;28;21252;-68
2021/10/20 00:09:20;;;;;;;9.35;5.68;;;10.50;27.60;;;;;;5057459;28;20045;-68
2021/10/20 00:11:48;;;;;;;7.20;5.57;;;10.50;28.30;;;;;;5053417;28;20138;-68
2021/10/20 00:14:22;;;;;;;8.98;6.28;;;10.40;28.70;;;;;;5049479;28;20439;-69
2021/10/20 00:16:54;;;;;;;9.60;5.47;;;10.30;29.10;;;;;;5053929;28;20097;-68
2021/10/20 00:19:22;;;;;;;10.40;6.03;;;10.20;30.40;;;;;;5051625;28;20131;-68
2021/10/20 00:21:50;;;;;;;7.63;5.88;;;10.20;30.90;;;;;;5034571;28;20401;-69
2021/10/20 00:24:20;;;;;;;9.48;5.85;;;10.10;30.90;;;;;;5049712;28;20045;-68
2021/10/20 00:26:49;;;;;;;9.57;6.28;;;10.20;30.80;;;;;;5048076;28;20064;-69
2021/10/20 00:29:17;;;;;;;8.75;5.85;;;10.10;30.80;;;;;;5058396;28;20077;-69
2021/10/20 00:31:47;;;;;;;11.65;6.28;;;10.10;32.20;;;;;;5052407;28;20127;-69
2021/10/20 00:34:19;;;;;;;14.80;6.45;;;10.30;30.30;;;;;;5051564;28;20431;-69
2021/10/20 00:36:47;;;;;;;9.25;6.40;;;10.20;30.00;;;;;;5053990;28;20075;-69
2021/10/20 00:39:15;;;;;;;10.27;6.97;;;10.30;29.30;;;;;;5051622;28;20098;-69
2021/10/20 00:41:45;;;;;;;8.68;6.30;;;10.50;28.90;;;;;;5054255;28;20102;-69
2021/10/20 00:44:13;;;;;;;12.25;6.75;;;10.40;27.60;;;;;;5050284;28;20054;-69
2021/10/20 00:46:42;;;;;;;8.80;5.85;;;10.40;27.10;;;;;;5050082;28;20148;-69
2021/10/20 00:49:12;;;;;;;11.70;6.18;;;10.50;26.10;;;;;;5050144;28;20135;-69
2021/10/20 00:51:40;;;;;;;9.30;5.82;;;10.50;25.40;;;;;;5048790;28;20123;-69
2021/10/20 00:54:09;;;;;;;8.77;6.30;;;10.50;25.90;;;;;;5047661;28;20068;-69
2021/10/20 00:56:39;;;;;;;9.18;6.07;;;10.50;25.80;;;;;;5057812;28;20889;-69
2021/10/20 00:59:08;;;;;;;12.00;6.88;;;10.40;25.80;;;;;;5047497;28;20098;-69
2021/10/20 01:01:40;;;;;;;12.63;7.13;;;10.40;25.90;;;;;;5053162;28;20048;-68
2021/10/20 01:04:12;;;;;;;10.52;6.78;;;10.40;25.80;;;;;;5053477;28;20053;-69
2021/10/20 01:06:41;;;;;;;9.88;6.72;;;10.40;25.80;;;;;;5048266;28;20102;-69
2021/10/20 01:09:13;;;;;;;12.20;5.80;;;10.60;25.10;;;;;;5062371;28;20048;-68
2021/10/20 01:11:44;;;;;;;10.70;6.70;;;10.60;24.60;;;;;;5050190;28;20045;-69
2021/10/20 01:14:14;;;;;;;10.90;6.60;;;10.60;24.40;;;;;;5046168;28;20128;-68
2021/10/20 01:16:43;;;;;;;9.85;6.50;;;10.70;23.90;;;;;;5051142;28;20488;-69
2021/10/20 01:19:15;;;;;;;10.10;6.80;;;10.70;23.50;;;;;;5032302;28;20072;-68
2021/10/20 01:21:45;;;;;;;10.02;6.60;;;10.60;23.80;;;;;;5050083;28;20056;-68
2021/10/20 01:24:14;;;;;;;9.05;5.93;;;10.60;23.60;;;;;;5046970;28;20417;-69
2021/10/20 01:26:45;;;;;;;10.48;5.90;;;10.50;23.60;;;;;;5050105;28;20590;-69
2021/10/20 01:29:14;;;;;;;9.50;5.85;;;10.60;23.30;;;;;;5049347;28;20048;-69
2021/10/20 01:31:46;;;;;;;10.95;6.22;;;10.60;23.00;;;;;;5053405;28;20036;-69
2021/10/20 01:34:16;;;;;;;12.48;6.78;;;10.70;23.10;;;;;;5047135;28;20826;-69
2021/10/20 01:36:50;;;;;;;9.25;5.53;;;10.70;22.00;;;;;;5052806;28;20052;-71
2021/10/20 01:39:22;;;;;;;8.82;6.28;;;10.80;21.80;;;;;;5039374;28;20045;-70
2021/10/20 01:41:52;;;;;;;10.60;5.55;;;10.90;21.10;;;;;;5047839;28;20055;-70
2021/10/20 01:44:24;;;;;;;9.30;5.57;;;10.90;20.30;;;;;;5050594;28;20051;-70
2021/10/20 01:46:52;;;;;;;8.10;6.00;;;10.80;20.20;;;;;;5047961;28;20048;-69
2021/10/20 01:49:20;;;;;;;8.60;5.43;;;10.90;20.00;;;;;;5051808;28;20063;-69
2021/10/20 01:51:54;;;;;;;8.50;5.57;;;10.90;19.10;;;;;;5047052;28;20302;-69
2021/10/20 01:54:22;;;;;;;8.57;5.25;;;10.90;19.20;;;;;;5056186;28;20049;-69
2021/10/20 01:56:55;;;;;;;9.70;5.53;;;10.90;18.60;;;;;;5048970;28;20098;-70
2021/10/20 01:59:23;;;;;;;8.48;6.03;;;10.80;18.40;;;;;;5051416;28;20098;-69
2021/10/20 02:01:53;;;;;;;14.15;7.35;;;10.80;18.50;;;;;;5055051;28;20044;-70
2021/10/20 02:04:21;;;;;;;12.70;6.32;;;10.80;18.50;;;;;;5046227;28;20097;-67
2021/10/20 02:06:53;;;;;;;10.27;6.13;;;10.80;18.60;;;;;;5053259;28;20063;-69
2021/10/20 02:09:24;;;;;;;8.52;6.07;;;10.80;18.80;;;;;;5050240;28;20044;-68
2021/10/20 02:11:55;;;;;;;10.15;6.40;;;10.80;19.10;;;;;;5048401;28;20048;-70
2021/10/20 02:14:27;;;;;;;9.10;5.37;;;10.80;18.40;;;;;;5048132;28;20047;-68
2021/10/20 02:16:55;;;;;;;8.63;5.78;;;10.90;18.70;;;;;;5051641;28;20302;-69
2021/10/20 02:19:24;;;;;;;10.25;5.90;;;10.80;18.10;;;;;;5050072;28;20097;-68
2021/10/20 02:21:52;;;;;;;10.75;5.90;;;10.80;18.10;;;;;;5031425;28;20049;-68
2021/10/20 02:24:26;;;;;;;7.75;5.90;;;10.80;18.40;;;;;;5048614;28;20052;-69
2021/10/20 02:26:54;;;;;;;9.43;5.72;;;10.60;19.00;;;;;;5047558;28;20044;-69
2021/10/20 02:29:24;;;;;;;11.90;6.22;;;10.50;20.00;;;;;;5059592;28;20127;-69
2021/10/20 02:31:53;;;;;;;10.05;5.88;;;10.40;20.80;;;;;;5054835;28;20060;-69
2021/10/20 02:34:22;;;;;;;7.60;5.70;;;10.50;20.90;;;;;;5047801;28;20140;-69
2021/10/20 02:36:51;;;;;;;8.48;5.82;;;10.50;20.40;;;;;;5053803;28;20681;-69
2021/10/20 02:39:19;;;;;;;10.45;6.18;;;10.30;21.30;;;;;;5052122;28;20048;-69
2021/10/20 02:41:50;;;;;;;10.55;6.18;;;10.20;22.00;;;;;;5046886;28;20516;-69
2021/10/20 02:44:18;;;;;;;9.98;6.70;;;10.20;22.20;;;;;;5050426;28;20139;-69
2021/10/20 02:46:48;;;;;;;9.40;5.75;;;10.10;22.20;;;;;;5052297;28;20659;-70
2021/10/20 02:49:19;;;;;;;9.18;6.25;;;10.00;23.40;;;;;;5049903;28;20052;-69
2021/10/20 02:51:48;;;;;;;10.13;6.15;;;9.90;25.20;;;;;;5048715;28;20041;-69
2021/10/20 02:54:20;;;;;;;10.98;6.30;;;10.00;24.60;;;;;;5051495;28;20143;-69
2021/10/20 02:56:51;;;;;;;8.57;6.18;;;9.90;25.20;;;;;;5046584;28;20102;-69
2021/10/20 02:59:21;;;;;;;9.35;5.78;;;9.90;26.10;;;;;;5049303;28;20537;-69
2021/10/20 03:01:53;;;;;;;10.00;6.03;;;9.80;26.20;;;;;;5050235;28;20603;-69
2021/10/20 03:04:21;;;;;;;9.90;6.32;;;9.80;26.60;;;;;;5049907;28;20048;-69
2021/10/20 03:06:50;;;;;;;11.15;7.07;;;9.80;26.90;;;;;;5050296;28;20068;-69
2021/10/20 03:09:20;;;;;;;11.90;6.53;;;9.70;27.40;;;;;;5048320;28;20424;-69
2021/10/20 03:11:48;;;;;;;7.85;6.05;;;9.60;28.70;;;;;;5046733;28;20136;-68
2021/10/20 03:14:19;;;;;;;10.50;6.38;;;9.50;29.30;;;;;;5049760;28;20049;-69
2021/10/20 03:16:51;;;;;;;9.45;5.78;;;9.40;30.10;;;;;;5050025;28;20148;-68
2021/10/20 03:19:20;;;;;;;11.55;6.50;;;9.30;31.40;;;;;;5050017;28;20040;-68
2021/10/20 03:21:49;;;;;;;10.55;6.32;;;9.30;31.70;;;;;;5049144;28;20124;-67
2021/10/20 03:24:20;;;;;;;12.68;7.03;;;9.30;32.10;;;;;;5047165;28;20499;-68
2021/10/20 03:26:49;;;;;;;11.50;6.93;;;9.10;33.00;;;;;;5042322;28;20045;-68
2021/10/20 03:29:19;;;;;;;13.73;6.65;;;9.10;33.90;;;;;;5053345;28;20045;-68
2021/10/20 03:31:47;;;;;;;12.02;6.38;;;9.10;34.00;;;;;;5048035;28;20041;-68
2021/10/20 03:34:16;;;;;;;12.95;6.40;;;9.10;34.30;;;;;;5053265;28;20106;-68
2021/10/20 03:36:48;;;;;;;11.73;6.40;;;9.20;34.60;;;;;;5054621;28;20076;-68
2021/10/20 03:39:22;;;;;;;9.18;6.07;;;9.30;33.70;;;;;;5055426;28;20040;-70
2021/10/20 03:41:52;;;;;;;10.82;6.00;;;9.50;32.30;;;;;;5052913;28;20044;-69
2021/10/20 03:44:22;;;;;;;12.88;6.85;;;9.70;29.00;;;;;;5057258;28;20051;-69
2021/10/20 03:46:50;;;;;;;8.55;5.60;;;9.80;26.10;;;;;;5038503;28;20040;-69
2021/10/20 03:49:18;;;;;;;10.70;5.72;;;9.80;25.10;;;;;;5060252;28;20120;-69
2021/10/20 03:51:48;;;;;;;8.35;5.63;;;9.80;24.40;;;;;;5052642;28;20215;-69
2021/10/20 03:54:16;;;;;;;7.93;6.00;;;9.90;23.20;;;;;;5055937;28;20571;-69
2021/10/20 03:56:47;;;;;;;9.13;5.57;;;9.80;23.60;;;;;;5064585;28;20046;-68
2021/10/20 03:59:18;;;;;;;9.10;5.95;;;9.80;23.40;;;;;;5060959;28;20044;-69
2021/10/20 04:01:52;;;;;;;10.55;5.93;;;9.90;23.40;;;;;;5060275;28;20388;-68
2021/10/20 04:04:21;;;;;;;12.00;5.70;;;9.90;22.70;;;;;;5060125;28;20049;-69
2021/10/20 04:06:49;;;;;;;8.40;5.60;;;9.80;22.70;;;;;;5058951;28;20056;-68
2021/10/20 04:09:21;;;;;;;12.18;5.88;;;9.80;22.80;;;;;;5061171;28;20547;-69
2021/10/20 04:11:50;;;;;;;7.88;5.43;;;9.80;22.70;;;;;;5056579;28;20123;-69
2021/10/20 04:14:18;;;;;;;8.93;5.55;;;9.70;22.70;;;;;;5061657;28;20131;-69
2021/10/20 04:16:50;;;;;;;8.70;5.45;;;9.60;24.30;;;;;;5060307;28;20044;-68
2021/10/20 04:19:20;;;;;;;9.32;6.25;;;9.60;24.30;;;;;;5058824;28;20457;-69
2021/10/20 04:21:52;;;;;;;8.00;4.78;;;9.70;24.00;;;;;;5043980;28;20109;-69
2021/10/20 04:24:23;;;;;;;8.63;5.32;;;9.60;24.00;;;;;;5062654;28;20097;-69
2021/10/20 04:26:51;;;;;;;10.05;5.82;;;9.50;24.60;;;;;;5054241;28;20056;-68
2021/10/20 04:29:23;;;;;;;8.60;5.65;;;9.30;25.80;;;;;;5067454;28;20163;-68
2021/10/20 04:31:51;;;;;;;14.85;5.40;;;9.20;27.90;;;;;;5057943;28;20072;-69
2021/10/20 04:34:20;;;;;;;8.70;5.38;;;9.20;29.10;;;;;;5056461;28;20080;-69
2021/10/20 04:36:51;;;;;;;7.35;5.30;;;9.00;29.00;;;;;;5061200;28;20052;-69
2021/10/20 04:39:19;;;;;;;8.60;5.65;;;9.00;30.70;;;;;;5056414;28;20106;-69
2021/10/20 04:41:49;;;;;;;8.40;5.55;;;9.00;30.60;;;;;;5063856;28;20052;-69
2021/10/20 04:44:17;;;;;;;12.20;5.57;;;9.00;30.00;;;;;;5057062;28;20064;-68
2021/10/20 04:46:46;;;;;;;7.97;5.25;;;8.90;30.90;;;;;;5054838;28;20077;-68
2021/10/20 04:49:15;;;;;;;7.40;4.72;;;8.70;32.60;;;;;;5062803;28;20044;-69
2021/10/20 04:51:45;;;;;;;8.70;5.68;;;8.80;33.80;;;;;;5058859;28;20041;-69
2021/10/20 04:54:15;;;;;;;8.88;5.05;;;8.70;33.90;;;;;;5055498;28;20122;-69
2021/10/20 04:56:45;;;;;;;6.22;4.85;;;8.70;33.60;;;;;;5061546;28;20043;-69
2021/10/20 04:59:14;;;;;;;7.25;5.18;;;8.70;33.70;;;;;;5058130;28;20044;-69
2021/10/20 05:01:43;;;;;;;9.13;5.07;;;8.70;33.90;;;;;;5054613;28;20048;-69
2021/10/20 05:04:15;;;;;;;12.10;5.90;;;8.70;33.60;;;;;;5056496;28;20057;-69
2021/10/20 05:06:47;;;;;;;10.18;5.85;;;8.60;34.20;;;;;;5054999;28;20041;-69
2021/10/20 05:09:15;;;;;;;7.32;5.00;;;8.50;34.60;;;;;;5061527;28;20048;-69
2021/10/20 05:11:46;;;;;;;9.73;5.65;;;8.50;36.40;;;;;;5058350;28;20446;-69
2021/10/20 05:14:14;;;;;;;9.77;5.72;;;8.50;35.70;;;;;;5056284;28;20504;-69
2021/10/20 05:16:44;;;;;;;7.22;5.25;;;8.60;33.30;;;;;;5057974;28;20045;-67
2021/10/20 05:19:16;;;;;;;12.63;6.38;;;8.70;32.70;;;;;;5060253;28;20055;-68
2021/10/20 05:21:44;;;;;;;9.57;5.70;;;8.60;33.30;;;;;;5055754;28;20041;-68
2021/10/20 05:24:16;;;;;;;10.45;6.63;;;8.50;34.00;;;;;;5059607;28;20159;-68
2021/10/20 05:26:46;;;;;;;9.68;5.78;;;8.50;35.00;;;;;;5055943;28;20052;-69
2021/10/20 05:29:14;;;;;;;8.15;5.53;;;8.50;35.80;;;;;;5056265;28;20044;-69
2021/10/20 05:31:43;;;;;;;8.73;5.22;;;8.60;32.90;;;;;;5058599;28;20047;-69
2021/10/20 05:34:13;;;;;;;9.60;5.93;;;8.60;32.60;;;;;;5053338;28;20400;-69
2021/10/20 05:36:42;;;;;;;10.70;6.05;;;8.60;33.20;;;;;;5056631;28;20136;-67
2021/10/20 05:39:13;;;;;;;9.05;5.93;;;8.50;34.00;;;;;;5056683;28;20526;-68
2021/10/20 05:41:45;;;;;;;14.02;6.28;;;8.40;35.60;;;;;;5059415;28;20802;-69
2021/10/20 05:44:14;;;;;;;8.68;6.00;;;8.40;36.60;;;;;;5054923;28;20049;-68
2021/10/20 05:46:45;;;;;;;13.10;7.20;;;8.30;36.60;;;;;;5056490;28;20048;-68
2021/10/20 05:49:14;;;;;;;11.25;6.10;;;8.30;37.20;;;;;;5055054;28;20051;-71
2021/10/20 05:51:44;;;;;;;8.57;5.75;;;8.40;37.90;;;;;;5061623;28;20163;-67
2021/10/20 05:54:13;;;;;;;11.88;6.07;;;8.40;37.10;;;;;;5055885;28;20116;-68
2021/10/20 05:56:45;;;;;;;9.20;6.00;;;8.40;36.70;;;;;;5053760;28;20523;-69
2021/10/20 05:59:14;;;;;;;12.40;6.78;;;8.50;36.70;;;;;;5053910;28;20041;-69
2021/10/20 06:01:42;;;;;;;11.13;6.63;;;8.60;35.50;;;;;;5056139;28;20150;-69
2021/10/20 06:04:11;;;;;;;13.75;6.53;;;8.60;34.10;;;;;;5049849;28;20501;-69
2021/10/20 06:06:39;;;;;;;9.68;6.32;;;8.50;34.70;;;;;;5053596;28;20113;-69
2021/10/20 06:09:08;;;;;;;10.15;6.68;;;8.50;35.50;;;;;;5055255;28;20815;-69
2021/10/20 06:11:36;;;;;;;9.27;5.72;;;8.50;35.80;;;;;;5056926;28;20119;-68
2021/10/20 06:14:10;;;;;;;11.95;5.55;;;8.50;36.00;;;;;;5053656;28;20394;-69
2021/10/20 06:16:41;;;;;;;7.03;4.90;;;8.60;35.60;;;;;;5050994;28;20634;-70
2021/10/20 06:19:10;;;;;;;9.63;6.05;;;8.60;34.70;;;;;;5054261;28;20052;-69
2021/10/20 06:21:38;;;;;;;10.30;5.55;;;8.70;34.40;;;;;;5056165;28;20068;-70
2021/10/20 06:24:06;;;;;;;9.43;5.57;;;8.80;34.50;;;;;;5051148;28;20045;-68
2021/10/20 06:26:39;;;;;;;5.82;4.78;;;8.80;34.30;;;;;;5051795;28;20641;-68
2021/10/20 06:29:12;;;;;;;10.38;5.80;;;8.90;34.30;;;;;;5055642;28;20044;-69
2021/10/20 06:31:42;;;;;;;9.05;5.68;;;8.90;34.20;;;;;;5051533;28;20574;-69
2021/10/20 06:34:12;;;;;;;10.25;5.90;;;9.00;34.40;;;;;;5054359;28;20190;-69
2021/10/20 06:36:43;;;;;;;13.10;6.65;;;9.00;34.40;;;;;;5051476;28;20060;-69
2021/10/20 06:39:20;;;;;;;10.10;6.03;;;9.10;33.80;;;;;;5052034;28;20044;-69
2021/10/20 06:41:50;;;;;;;10.27;6.13;;;9.20;33.10;;;;;;5055613;28;20493;-68
2021/10/20 06:44:24;;;;;;;14.35;6.75;;;9.40;31.50;;;;;;5054607;28;20048;-68
2021/10/20 06:46:54;;;;;;;15.25;7.00;;;9.50;29.30;;;;;;5053086;28;20053;-68
2021/10/20 06:49:22;;;;;;;13.48;6.55;;;9.70;28.80;;;;;;5059153;28;20498;-68
2021/10/20 06:51:51;;;;;;;11.35;6.40;;;9.80;28.00;;;;;;5060839;28;20134;-69
2021/10/20 06:54:20;;;;;;;14.40;6.82;;;9.90;27.70;;;;;;5051694;28;20502;-68
2021/10/20 06:56:50;;;;;;;13.48;7.40;;;10.00;25.90;;;;;;5060007;28;20157;-68
2021/10/20 06:59:25;;;;;;;15.07;7.28;;;10.20;24.60;;;;;;5055919;28;20047;-69
2021/10/20 07:01:53;;;;;;;11.43;7.15;;;10.40;23.30;;;;;;5054067;28;20048;-68
2021/10/20 07:04:26;;;;;;;12.98;7.95;;;10.50;22.40;;;;;;5058036;28;20080;-68
2021/10/20 07:06:56;;;;;;;17.00;7.55;;;10.70;21.80;;;;;;5051558;28;20051;-68
2021/10/20 07:09:24;;;;;;;14.18;6.65;;;10.80;20.80;;;;;;5052283;28;20040;-69
2021/10/20 07:11:52;;;;;;;11.15;6.22;;;11.10;17.30;;;;;;5055552;28;20706;-69
2021/10/20 07:14:21;;;;;;;10.65;6.50;;;11.30;13.80;;;;;;5050840;28;20115;-68
2021/10/20 07:16:51;;;;;;;15.65;5.43;;;11.50;10.40;;;;;;5053242;28;20053;-69
2021/10/20 07:19:21;;;;;;;12.30;6.18;;;11.70;8.10;;;;;;5053136;28;20045;-69
2021/10/20 07:21:54;;;;;;;10.68;5.82;;;12.00;6.20;;;;;;5055004;28;20039;-69
2021/10/20 07:24:22;;;;;;;13.88;6.32;;;12.00;5.40;;;;;;5055917;28;20054;-69
2021/10/20 07:26:56;;;;;;;;;;;12.10;5.50;;;;;;5057514;28;20075;-69
2021/10/20 07:29:24;;;;;;;9.52;6.03;;;12.10;5.50;;;;;;5062457;28;19921;-69
2021/10/20 07:31:54;;;;;;;11.93;6.30;;;12.10;5.50;;;;;;5059598;28;20040;-68
2021/10/20 07:34:22;;;;;;;11.02;5.75;;;12.20;5.60;;;;;;5057471;28;20121;-69
2021/10/20 07:36:55;;;;;;;11.90;6.32;;;12.40;5.40;;;;;;5054240;28;20059;-68
2021/10/20 07:39:23;;;;;;;10.43;6.50;;;12.50;4.50;;;;;;5054378;28;20129;-68
2021/10/20 07:41:51;;;;;;;10.45;5.20;;;12.60;3.90;;;;;;5058534;28;20049;-69
2021/10/20 07:44:20;;;;;;;11.60;5.03;;;12.80;2.50;;;;;;5054597;28;20048;-69
2021/10/20 07:46:51;;;;;;;9.95;4.95;;;13.00;1.00;;;;;;5060738;28;20041;-70
2021/10/20 07:49:24;;;;;;;10.35;4.72;;;13.30;1.00;;;;;;5056526;28;20098;-69
2021/10/20 07:51:56;;;;;;;8.60;5.30;;;13.30;1.00;;;;;;5055783;28;20056;-70
2021/10/20 07:54:29;;;;;;;8.20;5.20;;;13.40;1.00;;;;;;5057410;28;20429;-68
2021/10/20 07:57:01;;;;;;;15.30;5.20;;;13.40;1.00;;;;;;5054112;28;20071;-68
2021/10/20 07:59:31;;;;;;;11.68;4.75;;;13.30;1.00;;;;;;5060467;28;20045;-68
2021/10/20 08:02:00;;;;;;;7.25;4.13;;;13.40;1.00;;;;;;5063032;28;20040;-68
2021/10/20 08:04:35;;;;;;;14.73;4.90;;;13.60;1.00;;;;;;5059607;28;20064;-68
2021/10/20 08:07:07;;;;;;;8.95;5.18;;;13.70;1.00;;;;;;5057414;28;20175;-68
2021/10/20 08:09:37;;;;;;;12.18;5.07;;;13.90;1.00;;;;;;5062481;28;20045;-69
2021/10/20 08:12:06;;;;;;;12.32;4.65;;;14.00;1.00;;;;;;5056636;28;20079;-68
2021/10/20 08:14:41;;;;;;;9.60;5.65;;;14.20;1.00;;;;;;5059993;28;20048;-68
2021/10/20 08:17:12;;;;;;;8.07;4.72;;;14.30;1.00;;;;;;5062839;28;20052;-68
2021/10/20 08:19:47;;;;;;;11.27;5.20;;;14.50;1.00;;;;;;5041099;28;20118;-69
2021/10/20 08:22:15;;;;;;;8.02;4.30;;;14.70;1.00;;;;;;5061157;28;20052;-69
2021/10/20 08:24:47;;;;;;;8.32;4.75;;;15.00;1.00;;;;;;5065159;28;20132;-68
2021/10/20 08:27:15;;;;;;;8.02;4.38;;;15.10;1.00;;;;;;5057296;28;20049;-68
2021/10/20 08:29:46;;;;;;;9.05;4.47;;;15.30;1.00;;;;;;5058598;28;20055;-69
2021/10/20 08:32:15;;;;;;;7.07;4.65;;;15.40;1.00;;;;;;5054712;28;20060;-69
2021/10/20 08:34:43;;;;;;;9.82;4.38;;;15.50;1.00;;;;;;5050235;28;20670;-69
2021/10/20 08:37:13;;;;;;;7.43;4.53;;;15.60;1.00;;;;;;5057641;28;20048;-69
2021/10/20 08:39:41;;;;;;;6.65;4.78;;;15.60;1.00;;;;;;5060121;28;20131;-69
2021/10/20 08:42:12;;;;;;;7.03;4.45;;;15.60;1.00;;;;;;5059309;28;20106;-69
2021/10/20 08:45:03;;;;;;;8.38;4.88;;;15.80;1.00;;;;;;5063341;28;20032;-69
2021/10/20 08:47:35;;;;;;;6.30;3.90;;;16.00;1.00;;;;;;5054893;28;20044;-68
2021/10/20 08:50:05;;;;;;;7.65;4.07;;;16.10;1.00;;;;;;5058656;28;20045;-68
2021/10/20 08:52:39;;;;;;;6.82;3.95;;;16.40;1.00;;;;;;5052895;28;20086;-69
2021/10/20 08:55:08;;;;;;;6.72;4.68;;;16.50;1.00;;;;;;5053444;28;20065;-69
2021/10/20 08:57:37;;;;;;;8.57;4.72;;;16.40;1.00;;;;;;5055448;28;20053;-69
2021/10/20 09:00:09;;;;;;;12.63;4.97;;;16.30;1.00;;;;;;5061726;28;20053;-69
2021/10/20 09:02:43;;;;;;;8.85;4.47;;;16.60;1.00;;;;;;5055622;28;20132;-69
2021/10/20 09:05:13;;;;;;;9.82;4.57;;;16.70;1.00;;;;;;5064704;28;20094;-69
2021/10/20 09:07:48;;;;;;;;;;;17.10;1.00;;;;;;5055485;28;20052;-69
2021/10/20 09:10:17;;;;;;;8.63;3.70;;;17.10;1.00;;;;;;5052943;28;20433;-69
2021/10/20 09:12:46;;;;;;;7.32;3.03;;;17.30;1.00;;;;;;5056153;28;20512;-69
2021/10/20 09:15:18;;;;;;;9.30;4.00;;;17.40;1.00;;;;;;5058484;28;20055;-69
2021/10/20 09:17:49;;;;;;;8.23;3.70;;;17.40;1.00;;;;;;5054583;28;20040;-69
2021/10/20 09:20:23;;;;;;;7.97;4.25;;;17.50;1.00;;;;;;5053299;28;20400;-69
2021/10/20 09:23:05;;;;;;;7.65;3.80;;;17.50;1.00;;;;;;5042788;28;20051;-69
2021/10/20 09:25:38;;;;;;;7.47;3.88;;;17.40;1.00;;;;;;5056671;28;20044;-69
2021/10/20 09:28:07;;;;;;;9.75;3.80;;;17.40;1.00;;;;;;5054395;28;20063;-70
2021/10/20 09:30:42;;;;;;;6.55;4.10;;;17.50;1.00;;;;;;5061302;28;20045;-70
2021/10/20 09:33:13;;;;;;;6.88;4.32;;;17.40;1.00;;;;;;5055892;28;20044;-69
2021/10/20 09:35:43;;;;;;;8.40;4.25;;;17.50;1.00;;;;;;5055020;28;20045;-67
2021/10/20 09:38:13;;;;;;;5.03;4.07;;;17.70;1.00;;;;;;5054226;28;20132;-69
2021/10/20 09:40:43;;;;;;;8.63;3.78;;;17.80;1.00;;;;;;5054074;28;20053;-69
2021/10/20 09:43:14;;;;;;;6.45;3.03;;;18.10;1.00;;;;;;5060098;28;20048;-68
2021/10/20 09:45:45;;;;;;;3.28;2.35;;;18.30;1.00;;;;;;5053501;28;20049;-70
2021/10/20 09:48:18;;;;;;;5.07;2.40;;;18.60;1.00;;;;;;5054769;28;20060;-69
2021/10/20 09:51:00;;;;;;;4.20;2.50;;;18.80;1.00;;;;;;5062216;28;20416;-69
2021/10/20 09:53:31;;;;;;;5.22;2.38;;;19.00;1.00;;;;;;5059023;28;20032;-68
2021/10/20 09:56:00;;;;;;;3.58;2.80;;;19.10;1.00;;;;;;5053337;28;20052;-69
2021/10/20 09:58:30;;;;;;;4.53;2.60;;;19.50;1.00;;;;;;5055931;28;20105;-69
2021/10/20 10:01:01;;;;;;;4.50;2.90;;;19.70;1.00;;;;;;5060436;28;20526;-68
2021/10/20 10:03:31;;;;;;;3.88;2.45;;;19.80;1.00;;;;;;5050034;28;20040;-68
2021/10/20 10:06:00;;;;;;;3.78;2.65;;;19.80;1.00;;;;;;5051077;28;20041;-69
2021/10/20 10:08:29;;;;;;;3.72;2.47;;;20.00;1.00;;;;;;5055003;28;20455;-69
2021/10/20 10:11:03;;;;;;;4.38;2.45;;;20.00;1.00;;;;;;5056226;28;20069;-68
2021/10/20 10:13:36;;;;;;;3.40;2.30;;;19.90;1.00;;;;;;5059761;28;20041;-70
2021/10/20 10:16:10;;;;;;;3.80;2.45;;;20.00;1.00;;;;;;5057778;28;20059;-69
2021/10/20 10:18:41;;;;;;;3.50;2.67;;;20.00;1.00;;;;;;5050450;28;20054;-69
2021/10/20 10:21:31;;;;;;;4.72;2.78;;;20.00;1.00;;;;;;5058453;28;20063;-68
2021/10/20 10:24:05;;;;;;;4.90;2.95;;;20.30;1.00;;;;;;5059189;28;20047;-68
2021/10/20 10:26:36;;;;;;;;;;;20.40;1.00;;;;;;5058011;28;20040;-69
2021/10/20 10:29:11;;;;;;;4.85;2.83;;;20.20;1.00;;;;;;5057857;28;19943;-69
2021/10/20 10:31:44;;;;;;;3.85;2.42;;;20.30;1.00;;;;;;5054173;28;20123;-69
2021/10/20 10:34:19;;;;;;;4.72;2.58;;;20.40;1.00;;;;;;5054125;28;20650;-69
2021/10/20 10:36:52;;;;;;;4.07;2.53;;;20.60;1.00;;;;;;5058680;28;20045;-69
2021/10/20 10:39:22;;;;;;;9.20;2.75;;;20.40;1.00;;;;;;5060626;28;20120;-69
2021/10/20 10:41:50;;;;;;;3.80;2.60;;;20.40;1.00;;;;;;5056533;28;20143;-69
2021/10/20 10:44:20;;;;;;;2.75;2.22;;;20.50;1.00;;;;;;5061172;28;21527;-69
2021/10/20 10:47:07;;;;;;;4.47;2.58;;;20.50;1.00;;;;;;5056277;28;20036;-70
2021/10/20 10:49:40;;;;;;;3.78;2.22;;;20.40;1.00;;;;;;5053510;28;20132;-69
2021/10/20 10:52:23;;;;;;;4.47;2.50;;;20.60;1.00;;;;;;5061103;28;20056;-69
2021/10/20 10:55:14;;;;;;;5.80;2.55;;;20.70;1.00;;;;;;5062510;28;20120;-70
2021/10/20 10:57:56;;;;;;;4.10;2.20;;;20.60;1.00;;;;;;5055174;28;20408;-69
2021/10/20 11:00:27;;;;;;;2.92;2.15;;;20.70;1.00;;;;;;5053190;28;20052;-69
2021/10/20 11:02:57;;;;;;;10.27;2.42;;;20.80;1.00;;;;;;5057680;28;20040;-70
2021/10/20 11:05:31;;;;;;;6.18;2.53;;;20.80;1.00;;;;;;5057358;28;20055;-69
2021/10/20 11:08:01;;;;;;;6.68;2.42;;;20.80;1.00;;;;;;5063264;28;20094;-70
2021/10/20 11:10:32;;;;;;;4.43;2.67;;;20.70;1.00;;;;;;5067050;28;20128;-68
2021/10/20 11:13:04;;;;;;;3.38;2.28;;;20.90;1.00;;;;;;5057282;28;20514;-68
2021/10/20 11:15:34;;;;;;;3.95;2.88;;;20.80;1.00;;;;;;5062917;28;20044;-68
2021/10/20 11:18:02;;;;;;;4.60;2.20;;;21.10;1.00;;;;;;5060971;28;20049;-68
2021/10/20 11:20:34;;;;;;;5.13;2.75;;;21.30;1.00;;;;;;5059593;28;20118;-69
2021/10/20 11:23:07;;;;;;;7.23;3.13;;;21.50;1.00;;;;;;5063408;28;20036;-69
2021/10/20 11:25:40;;;;;;;3.35;2.03;;;21.80;1.00;;;;;;5062167;28;20302;-70
2021/10/20 11:28:09;;;;;;;2.58;1.80;;;21.60;1.00;;;;;;5054957;28;20127;-69
2021/10/20 11:30:39;;;;;;;3.78;2.03;;;21.70;1.00;;;;;;5056840;28;20041;-69
2021/10/20 11:33:12;;;;;;;5.95;2.33;;;21.80;1.00;;;;;;5059517;28;20592;-69
2021/10/20 11:35:40;;;;;;;3.00;1.83;;;21.80;1.00;;;;;;5053922;28;20045;-69
2021/10/20 11:38:11;;;;;;;4.25;2.33;;;21.70;1.00;;;;;;5056855;28;20118;-68
2021/10/20 11:40:46;;;;;;;4.45;2.15;;;21.70;1.00;;;;;;5059797;28;20041;-68
2021/10/20 11:43:19;;;;;;;2.25;2.00;;;21.80;1.00;;;;;;5055758;28;20564;-67
2021/10/20 11:45:50;;;;;;;6.00;2.17;;;22.10;1.00;;;;;;5056705;28;20042;-68
2021/10/20 11:48:20;;;;;;;5.32;1.98;;;22.10;1.00;;;;;;5059275;28;20098;-69
2021/10/20 11:50:52;;;;;;;3.08;1.92;;;22.10;1.00;;;;;;5056128;28;20128;-69
2021/10/20 11:53:22;;;;;;;2.53;2.10;;;22.10;1.00;;;;;;5054803;28;20378;-69
2021/10/20 11:55:54;;;;;;;4.32;2.30;;;22.10;1.00;;;;;;5059699;28;20045;-69
2021/10/20 11:58:29;;;;;;;2.00;1.80;;;21.90;1.00;;;;;;5055577;28;20044;-69
2021/10/20 12:00:59;;;;;;;5.40;1.95;;;22.00;1.00;;;;;;5061335;28;20084;-69
2021/10/20 12:03:36;;;;;;;2.70;1.98;;;22.10;1.00;;;;;;5062250;28;20055;-69
2021/10/20 12:06:07;;;;;;;3.28;2.38;;;22.10;1.00;;;;;;5058546;28;20062;-68
2021/10/20 12:08:36;;;;;;;3.63;2.67;;;22.10;1.00;;;;;;5065470;28;20408;-69
2021/10/20 12:11:06;;;;;;;3.13;2.35;;;22.10;1.00;;;;;;5060076;28;20041;-70
2021/10/20 12:13:36;;;;;;;3.47;2.10;;;22.10;1.00;;;;;;5058499;28;20194;-69
2021/10/20 12:16:07;;;;;;;7.32;2.50;;;22.30;1.00;;;;;;5062637;28;20036;-68
2021/10/20 12:18:39;;;;;;;5.88;2.22;;;22.20;1.00;;;;;;5055861;28;20118;-69
2021/10/20 12:21:11;;;;;;;4.38;2.30;;;22.00;1.00;;;;;;5060519;28;20139;-69
2021/10/20 12:23:45;;;;;;;3.33;1.83;;;21.80;1.00;;;;;;5062487;28;20064;-69
2021/10/20 12:26:16;;;;;;;7.97;2.25;;;21.70;1.00;;;;;;5058850;28;20059;-69
2021/10/20 12:28:45;;;;;;;2.45;1.90;;;21.70;1.00;;;;;;5058499;28;20041;-69
2021/10/20 12:31:16;;;;;;;2.33;1.80;;;21.60;1.00;;;;;;5045375;28;20055;-70
2021/10/20 12:33:52;;;;;;;3.70;2.42;;;21.50;1.00;;;;;;5056792;28;20124;-69
2021/10/20 12:36:22;;;;;;;3.33;2.30;;;21.50;1.00;;;;;;5060384;28;20131;-69
2021/10/20 12:38:51;;;;;;;5.13;2.50;;;21.50;1.00;;;;;;5062111;28;20074;-68
2021/10/20 12:41:24;;;;;;;3.75;1.98;;;21.40;1.00;;;;;;5057286;28;20052;-69
2021/10/20 12:43:54;;;;;;;2.53;2.33;;;21.30;1.00;;;;;;5061591;28;20123;-69
2021/10/20 12:46:42;;;;;;;2.67;2.03;;;21.30;1.00;;;;;;5057545;28;20051;-69
2021/10/20 12:49:13;;;;;;;4.70;2.15;;;21.30;1.00;;;;;;5053256;28;20037;-69
2021/10/20 12:51:49;;;;;;;9.65;2.65;;;21.20;1.00;;;;;;5064948;28;20064;-67
2021/10/20 12:54:38;;;;;;;8.27;2.50;;;21.20;1.00;;;;;;5063512;28;20036;-67
2021/10/20 12:57:09;;;;;;;4.50;2.78;;;21.30;1.00;;;;;;5053485;28;20071;-69
2021/10/20 12:59:41;;;;;;;4.43;2.77;;;21.20;1.00;;;;;;5056142;28;20064;-68
2021/10/20 13:02:10;;;;;;;3.85;2.67;;;21.20;1.00;;;;;;5058100;28;20378;-68
2021/10/20 13:04:38;;;;;;;4.25;2.70;;;21.10;1.00;;;;;;5058474;28;20131;-68
2021/10/20 13:07:06;;;;;;;3.05;2.33;;;21.00;1.00;;;;;;5057375;28;20044;-67
2021/10/20 13:09:34;;;;;;;6.28;3.42;;;21.00;1.00;;;;;;5058409;28;20535;-68
2021/10/20 13:12:03;;;;;;;4.43;2.40;;;21.00;1.00;;;;;;5058212;28;20048;-68